sensor_id;sensor_type;location;lat;lon;timestamp;P1;durP1;ratioP1;P2;durP2;ratioP2
17965;SDS011;9108;53.204;10.424;2022-07-29T00:00:46;2.43;;;1.10;;
17965;SDS011;9108;53.204;10.424;2022-07-29T00:03:13;2.40;;;1.20;;
17965;SDS011;9108;53.204;10.424;2022-07-29T00:05:42;5.15;;;1.40;;
17965;SDS011;9108;53.204;10.424;2022-07-29T00:08:09;4.35;;;1.27;;
17965;SDS011;9108;53.204;10.424;2022-07-29T00:10:36;3.83;;;1.20;;
17965;SDS011;9108;53.204;10.424;2022-07-29T00:13:03;5.47;;;1.10;;
17965;SDS011;9108;53.204;10.424;2022-07-29T00:15:30;5.55;;;1.40;;
17965;SDS011;9108;53.204;10.424;2022-07-29T00:17:57;4.07;;;1.40;;
17965;SDS011;9108;53.204;10.424;2022-07-29T00:20:24;4.43;;;1.40;;
17965;SDS011;9108;53.204;10.424;2022-07-29T00:22:53;3.13;;;1.30;;
17965;SDS011;9108;53.204;10.424;2022-07-29T00:25:20;5.60;;;1.42;;
17965;SDS011;9108;53.204;10.424;2022-07-29T00:27:47;4.13;;;1.20;;
17965;SDS011;9108;53.204;10.424;2022-07-29T00:30:14;5.28;;;1.48;;
17965;SDS011;9108;53.204;10.424;2022-07-29T00:32:41;3.72;;;1.52;;
17965;SDS011;9108;53.204;10.424;2022-07-29T00:35:08;3.17;;;1.50;;
17965;SDS011;9108;53.204;10.424;2022-07-29T00:37:54;3.90;;;1.38;;
17965;SDS011;9108;53.204;10.424;2022-07-29T00:40:22;4.25;;;1.40;;
17965;SDS011;9108;53.204;10.424;2022-07-29T00:42:49;4.45;;;1.30;;
17965;SDS011;9108;53.204;10.424;2022-07-29T00:45:17;4.95;;;1.30;;
17965;SDS011;9108;53.204;10.424;2022-07-29T00:47:44;6.80;;;1.65;;
17965;SDS011;9108;53.204;10.424;2022-07-29T00:50:12;4.35;;;1.55;;
17965;SDS011;9108;53.204;10.424;2022-07-29T00:52:40;5.20;;;1.40;;
17965;SDS011;9108;53.204;10.424;2022-07-29T00:55:10;8.05;;;1.70;;
17965;SDS011;9108;53.204;10.424;2022-07-29T00:57:38;3.28;;;1.38;;
17965;SDS011;9108;53.204;10.424;2022-07-29T01:00:07;3.90;;;1.35;;
17965;SDS011;9108;53.204;10.424;2022-07-29T01:02:35;5.57;;;1.50;;
17965;SDS011;9108;53.204;10.424;2022-07-29T01:05:02;4.00;;;1.40;;
17965;SDS011;9108;53.204;10.424;2022-07-29T01:07:30;4.28;;;1.42;;
17965;SDS011;9108;53.204;10.424;2022-07-29T01:09:59;4.13;;;1.55;;
17965;SDS011;9108;53.204;10.424;2022-07-29T01:12:29;5.07;;;1.60;;
17965;SDS011;9108;53.204;10.424;2022-07-29T01:14:58;4.13;;;1.50;;
17965;SDS011;9108;53.204;10.424;2022-07-29T01:17:26;5.72;;;1.58;;
17965;SDS011;9108;53.204;10.424;2022-07-29T01:19:56;5.22;;;1.60;;
17965;SDS011;9108;53.204;10.424;2022-07-29T01:22:37;4.30;;;1.48;;
17965;SDS011;9108;53.204;10.424;2022-07-29T01:28:05;5.88;;;1.50;;
17965;SDS011;9108;53.204;10.424;2022-07-29T01:30:36;2.97;;;1.45;;
17965;SDS011;9108;53.204;10.424;2022-07-29T01:33:06;5.80;;;1.60;;
17965;SDS011;9108;53.204;10.424;2022-07-29T01:35:35;3.93;;;1.57;;
17965;SDS011;9108;53.204;10.424;2022-07-29T01:38:05;6.63;;;1.70;;
17965;SDS011;9108;53.204;10.424;2022-07-29T01:40:33;5.25;;;1.50;;
17965;SDS011;9108;53.204;10.424;2022-07-29T01:43:03;4.90;;;1.75;;
17965;SDS011;9108;53.204;10.424;2022-07-29T01:45:37;3.45;;;1.50;;
17965;SDS011;9108;53.204;10.424;2022-07-29T01:48:10;4.45;;;1.60;;
17965;SDS011;9108;53.204;10.424;2022-07-29T01:50:40;4.82;;;1.60;;
17965;SDS011;9108;53.204;10.424;2022-07-29T01:53:10;3.72;;;1.50;;
17965;SDS011;9108;53.204;10.424;2022-07-29T01:55:38;6.53;;;1.60;;
17965;SDS011;9108;53.204;10.424;2022-07-29T01:58:06;5.55;;;1.60;;
17965;SDS011;9108;53.204;10.424;2022-07-29T02:00:33;5.43;;;1.63;;
17965;SDS011;9108;53.204;10.424;2022-07-29T02:03:02;5.65;;;1.55;;
17965;SDS011;9108;53.204;10.424;2022-07-29T02:05:32;4.82;;;1.60;;
17965;SDS011;9108;53.204;10.424;2022-07-29T02:07:59;7.10;;;1.60;;
17965;SDS011;9108;53.204;10.424;2022-07-29T02:10:30;6.05;;;1.70;;
17965;SDS011;9108;53.204;10.424;2022-07-29T02:12:58;4.07;;;1.50;;
17965;SDS011;9108;53.204;10.424;2022-07-29T02:15:27;6.32;;;1.80;;
17965;SDS011;9108;53.204;10.424;2022-07-29T02:17:56;4.80;;;1.77;;
17965;SDS011;9108;53.204;10.424;2022-07-29T02:20:25;4.73;;;1.50;;
17965;SDS011;9108;53.204;10.424;2022-07-29T02:22:54;6.70;;;1.70;;
17965;SDS011;9108;53.204;10.424;2022-07-29T02:25:22;5.90;;;1.75;;
17965;SDS011;9108;53.204;10.424;2022-07-29T02:27:50;5.47;;;1.60;;
17965;SDS011;9108;53.204;10.424;2022-07-29T02:30:18;6.38;;;1.65;;
17965;SDS011;9108;53.204;10.424;2022-07-29T02:32:47;5.47;;;1.60;;
17965;SDS011;9108;53.204;10.424;2022-07-29T02:35:15;5.03;;;1.60;;
17965;SDS011;9108;53.204;10.424;2022-07-29T02:37:43;2.90;;;1.45;;
17965;SDS011;9108;53.204;10.424;2022-07-29T02:40:12;4.80;;;1.52;;
17965;SDS011;9108;53.204;10.424;2022-07-29T02:42:41;3.60;;;1.60;;
17965;SDS011;9108;53.204;10.424;2022-07-29T02:45:09;6.20;;;1.80;;
17965;SDS011;9108;53.204;10.424;2022-07-29T02:47:38;4.40;;;1.75;;
17965;SDS011;9108;53.204;10.424;2022-07-29T02:50:07;3.30;;;1.52;;
17965;SDS011;9108;53.204;10.424;2022-07-29T02:52:37;4.80;;;1.50;;
17965;SDS011;9108;53.204;10.424;2022-07-29T02:55:07;4.25;;;1.73;;
17965;SDS011;9108;53.204;10.424;2022-07-29T02:57:40;4.90;;;1.85;;
17965;SDS011;9108;53.204;10.424;2022-07-29T03:00:08;5.15;;;1.70;;
17965;SDS011;9108;53.204;10.424;2022-07-29T03:02:37;4.15;;;1.80;;
17965;SDS011;9108;53.204;10.424;2022-07-29T03:05:06;4.75;;;1.67;;
17965;SDS011;9108;53.204;10.424;2022-07-29T03:07:33;6.68;;;1.90;;
17965;SDS011;9108;53.204;10.424;2022-07-29T03:10:01;3.33;;;1.80;;
17965;SDS011;9108;53.204;10.424;2022-07-29T03:12:28;5.97;;;1.88;;
17965;SDS011;9108;53.204;10.424;2022-07-29T03:14:57;7.40;;;2.17;;
17965;SDS011;9108;53.204;10.424;2022-07-29T03:17:25;7.00;;;1.80;;
17965;SDS011;9108;53.204;10.424;2022-07-29T03:19:53;5.10;;;1.90;;
17965;SDS011;9108;53.204;10.424;2022-07-29T03:22:20;5.50;;;1.80;;
17965;SDS011;9108;53.204;10.424;2022-07-29T03:24:48;6.75;;;1.70;;
17965;SDS011;9108;53.204;10.424;2022-07-29T03:27:15;4.90;;;1.77;;
17965;SDS011;9108;53.204;10.424;2022-07-29T03:29:42;4.50;;;1.75;;
17965;SDS011;9108;53.204;10.424;2022-07-29T03:32:10;7.20;;;2.20;;
17965;SDS011;9108;53.204;10.424;2022-07-29T03:34:37;5.38;;;1.90;;
17965;SDS011;9108;53.204;10.424;2022-07-29T03:37:05;4.33;;;1.80;;
17965;SDS011;9108;53.204;10.424;2022-07-29T03:39:34;5.25;;;1.80;;
17965;SDS011;9108;53.204;10.424;2022-07-29T03:42:02;5.70;;;1.70;;
17965;SDS011;9108;53.204;10.424;2022-07-29T03:44:29;4.38;;;1.80;;
17965;SDS011;9108;53.204;10.424;2022-07-29T03:46:58;3.58;;;1.80;;
17965;SDS011;9108;53.204;10.424;2022-07-29T03:49:28;6.45;;;1.80;;
17965;SDS011;9108;53.204;10.424;2022-07-29T03:51:56;5.70;;;1.90;;
17965;SDS011;9108;53.204;10.424;2022-07-29T03:54:23;8.67;;;2.10;;
17965;SDS011;9108;53.204;10.424;2022-07-29T03:56:50;6.82;;;1.98;;
17965;SDS011;9108;53.204;10.424;2022-07-29T03:59:19;4.60;;;1.80;;
17965;SDS011;9108;53.204;10.424;2022-07-29T04:01:47;5.10;;;1.70;;
17965;SDS011;9108;53.204;10.424;2022-07-29T04:04:14;5.85;;;1.85;;
17965;SDS011;9108;53.204;10.424;2022-07-29T04:06:44;4.18;;;1.60;;
17965;SDS011;9108;53.204;10.424;2022-07-29T04:09:11;5.63;;;2.00;;
17965;SDS011;9108;53.204;10.424;2022-07-29T04:11:39;5.85;;;1.77;;
17965;SDS011;9108;53.204;10.424;2022-07-29T04:14:06;5.30;;;1.77;;
17965;SDS011;9108;53.204;10.424;2022-07-29T04:16:33;5.50;;;1.90;;
17965;SDS011;9108;53.204;10.424;2022-07-29T04:19:00;5.15;;;1.70;;
17965;SDS011;9108;53.204;10.424;2022-07-29T04:21:27;4.65;;;1.88;;
17965;SDS011;9108;53.204;10.424;2022-07-29T04:23:56;6.57;;;1.90;;
17965;SDS011;9108;53.204;10.424;2022-07-29T04:26:23;6.93;;;1.70;;
17965;SDS011;9108;53.204;10.424;2022-07-29T04:28:50;3.47;;;1.70;;
17965;SDS011;9108;53.204;10.424;2022-07-29T04:31:17;4.63;;;1.65;;
17965;SDS011;9108;53.204;10.424;2022-07-29T04:33:44;5.88;;;1.83;;
17965;SDS011;9108;53.204;10.424;2022-07-29T04:36:11;3.92;;;1.80;;
17965;SDS011;9108;53.204;10.424;2022-07-29T04:38:38;6.13;;;1.70;;
17965;SDS011;9108;53.204;10.424;2022-07-29T04:41:07;3.65;;;1.80;;
17965;SDS011;9108;53.204;10.424;2022-07-29T04:43:34;5.40;;;1.63;;
17965;SDS011;9108;53.204;10.424;2022-07-29T04:46:02;5.85;;;1.80;;
17965;SDS011;9108;53.204;10.424;2022-07-29T04:48:30;6.18;;;1.70;;
17965;SDS011;9108;53.204;10.424;2022-07-29T04:50:57;6.30;;;1.70;;
17965;SDS011;9108;53.204;10.424;2022-07-29T04:53:24;4.28;;;1.75;;
17965;SDS011;9108;53.204;10.424;2022-07-29T04:55:51;6.70;;;1.80;;
17965;SDS011;9108;53.204;10.424;2022-07-29T04:58:20;6.40;;;1.67;;
17965;SDS011;9108;53.204;10.424;2022-07-29T05:00:48;6.38;;;1.58;;
17965;SDS011;9108;53.204;10.424;2022-07-29T05:03:15;6.68;;;1.70;;
17965;SDS011;9108;53.204;10.424;2022-07-29T05:05:42;4.35;;;1.70;;
17965;SDS011;9108;53.204;10.424;2022-07-29T05:08:09;5.18;;;1.70;;
17965;SDS011;9108;53.204;10.424;2022-07-29T05:10:36;5.25;;;1.75;;
17965;SDS011;9108;53.204;10.424;2022-07-29T05:13:04;3.38;;;1.58;;
17965;SDS011;9108;53.204;10.424;2022-07-29T05:15:33;6.47;;;1.80;;
17965;SDS011;9108;53.204;10.424;2022-07-29T05:18:00;4.68;;;1.63;;
17965;SDS011;9108;53.204;10.424;2022-07-29T05:20:27;5.07;;;1.70;;
17965;SDS011;9108;53.204;10.424;2022-07-29T05:22:54;4.70;;;1.77;;
17965;SDS011;9108;53.204;10.424;2022-07-29T05:25:22;5.30;;;2.00;;
17965;SDS011;9108;53.204;10.424;2022-07-29T05:27:49;4.80;;;1.88;;
17965;SDS011;9108;53.204;10.424;2022-07-29T05:30:16;5.32;;;1.90;;
17965;SDS011;9108;53.204;10.424;2022-07-29T05:32:44;4.93;;;1.80;;
17965;SDS011;9108;53.204;10.424;2022-07-29T05:35:12;4.78;;;2.00;;
17965;SDS011;9108;53.204;10.424;2022-07-29T05:37:39;5.97;;;2.10;;
17965;SDS011;9108;53.204;10.424;2022-07-29T05:40:09;4.43;;;1.70;;
17965;SDS011;9108;53.204;10.424;2022-07-29T05:42:37;4.75;;;1.60;;
17965;SDS011;9108;53.204;10.424;2022-07-29T05:45:05;4.35;;;1.73;;
17965;SDS011;9108;53.204;10.424;2022-07-29T05:47:35;4.70;;;1.80;;
17965;SDS011;9108;53.204;10.424;2022-07-29T05:50:04;6.72;;;1.50;;
17965;SDS011;9108;53.204;10.424;2022-07-29T05:52:31;5.63;;;1.98;;
17965;SDS011;9108;53.204;10.424;2022-07-29T05:54:58;5.80;;;2.00;;
17965;SDS011;9108;53.204;10.424;2022-07-29T05:57:27;6.90;;;1.73;;
17965;SDS011;9108;53.204;10.424;2022-07-29T05:59:54;5.00;;;1.67;;
17965;SDS011;9108;53.204;10.424;2022-07-29T06:02:22;4.93;;;1.63;;
17965;SDS011;9108;53.204;10.424;2022-07-29T06:04:49;3.70;;;1.70;;
17965;SDS011;9108;53.204;10.424;2022-07-29T06:07:17;6.80;;;1.80;;
17965;SDS011;9108;53.204;10.424;2022-07-29T06:09:44;5.57;;;1.70;;
17965;SDS011;9108;53.204;10.424;2022-07-29T06:12:12;4.20;;;1.70;;
17965;SDS011;9108;53.204;10.424;2022-07-29T06:14:39;6.78;;;1.70;;
17965;SDS011;9108;53.204;10.424;2022-07-29T06:17:06;3.28;;;1.58;;
17965;SDS011;9108;53.204;10.424;2022-07-29T06:19:33;3.80;;;1.60;;
17965;SDS011;9108;53.204;10.424;2022-07-29T06:22:01;5.00;;;1.70;;
17965;SDS011;9108;53.204;10.424;2022-07-29T06:24:30;7.00;;;1.90;;
17965;SDS011;9108;53.204;10.424;2022-07-29T06:26:57;5.07;;;1.83;;
17965;SDS011;9108;53.204;10.424;2022-07-29T06:29:26;5.77;;;1.70;;
17965;SDS011;9108;53.204;10.424;2022-07-29T06:31:53;6.20;;;1.70;;
17965;SDS011;9108;53.204;10.424;2022-07-29T06:34:22;6.93;;;1.65;;
17965;SDS011;9108;53.204;10.424;2022-07-29T06:36:52;5.68;;;1.70;;
17965;SDS011;9108;53.204;10.424;2022-07-29T06:39:19;5.80;;;1.63;;
17965;SDS011;9108;53.204;10.424;2022-07-29T06:41:48;5.55;;;1.95;;
17965;SDS011;9108;53.204;10.424;2022-07-29T06:44:16;4.38;;;1.48;;
17965;SDS011;9108;53.204;10.424;2022-07-29T06:46:43;6.43;;;1.73;;
17965;SDS011;9108;53.204;10.424;2022-07-29T06:49:15;4.07;;;1.48;;
17965;SDS011;9108;53.204;10.424;2022-07-29T06:51:42;5.13;;;1.60;;
17965;SDS011;9108;53.204;10.424;2022-07-29T06:54:09;7.10;;;1.90;;
17965;SDS011;9108;53.204;10.424;2022-07-29T06:56:36;4.80;;;1.63;;
17965;SDS011;9108;53.204;10.424;2022-07-29T06:59:08;5.57;;;1.75;;
17965;SDS011;9108;53.204;10.424;2022-07-29T07:01:36;4.70;;;1.55;;
17965;SDS011;9108;53.204;10.424;2022-07-29T07:04:03;6.67;;;1.73;;
17965;SDS011;9108;53.204;10.424;2022-07-29T07:06:30;2.65;;;1.40;;
17965;SDS011;9108;53.204;10.424;2022-07-29T07:08:57;4.03;;;1.53;;
17965;SDS011;9108;53.204;10.424;2022-07-29T07:11:25;5.73;;;1.60;;
17965;SDS011;9108;53.204;10.424;2022-07-29T07:13:52;4.20;;;1.50;;
17965;SDS011;9108;53.204;10.424;2022-07-29T07:16:21;4.23;;;1.50;;
17965;SDS011;9108;53.204;10.424;2022-07-29T07:18:48;3.47;;;1.60;;
17965;SDS011;9108;53.204;10.424;2022-07-29T07:21:15;3.53;;;1.57;;
17965;SDS011;9108;53.204;10.424;2022-07-29T07:23:42;4.70;;;1.67;;
17965;SDS011;9108;53.204;10.424;2022-07-29T07:26:09;3.33;;;1.37;;
17965;SDS011;9108;53.204;10.424;2022-07-29T07:28:36;6.17;;;1.40;;
17965;SDS011;9108;53.204;10.424;2022-07-29T07:31:03;7.30;;;1.50;;
17965;SDS011;9108;53.204;10.424;2022-07-29T07:33:32;4.77;;;1.70;;
17965;SDS011;9108;53.204;10.424;2022-07-29T07:35:59;4.63;;;1.40;;
